sensor_id;sensor_type;location;lat;lon;timestamp;P1;durP1;ratioP1;P2;durP2;ratioP2
70406;SDS011;57821;52.202;0.154;2022-12-16T00:01:33;28.65;;;10.95;;
70406;SDS011;57821;52.202;0.154;2022-12-16T00:03:59;25.15;;;9.63;;
70406;SDS011;57821;52.202;0.154;2022-12-16T00:06:29;21.73;;;10.80;;
70406;SDS011;57821;52.202;0.154;2022-12-16T00:08:57;25.55;;;8.85;;
70406;SDS011;57821;52.202;0.154;2022-12-16T00:11:24;23.90;;;10.18;;
70406;SDS011;57821;52.202;0.154;2022-12-16T00:13:50;20.75;;;9.52;;
70406;SDS011;57821;52.202;0.154;2022-12-16T00:16:18;22.70;;;9.40;;
70406;SDS011;57821;52.202;0.154;2022-12-16T00:18:45;25.20;;;10.25;;
70406;SDS011;57821;52.202;0.154;2022-12-16T00:21:12;21.77;;;10.48;;
70406;SDS011;57821;52.202;0.154;2022-12-16T00:23:39;27.17;;;10.02;;
70406;SDS011;57821;52.202;0.154;2022-12-16T00:26:06;23.80;;;10.20;;
70406;SDS011;57821;52.202;0.154;2022-12-16T00:28:33;21.52;;;10.05;;
70406;SDS011;57821;52.202;0.154;2022-12-16T00:31:00;22.58;;;10.88;;
70406;SDS011;57821;52.202;0.154;2022-12-16T00:33:27;21.38;;;11.07;;
70406;SDS011;57821;52.202;0.154;2022-12-16T00:35:54;27.83;;;11.05;;
70406;SDS011;57821;52.202;0.154;2022-12-16T00:38:21;24.70;;;10.82;;
70406;SDS011;57821;52.202;0.154;2022-12-16T00:40:49;26.13;;;10.40;;
70406;SDS011;57821;52.202;0.154;2022-12-16T00:43:17;25.10;;;10.63;;
70406;SDS011;57821;52.202;0.154;2022-12-16T00:45:44;21.70;;;10.00;;
70406;SDS011;57821;52.202;0.154;2022-12-16T00:48:11;23.85;;;9.95;;
70406;SDS011;57821;52.202;0.154;2022-12-16T00:50:38;22.35;;;10.07;;
70406;SDS011;57821;52.202;0.154;2022-12-16T00:53:04;25.23;;;9.95;;
70406;SDS011;57821;52.202;0.154;2022-12-16T00:55:31;24.08;;;9.75;;
70406;SDS011;57821;52.202;0.154;2022-12-16T00:57:58;25.42;;;10.23;;
70406;SDS011;57821;52.202;0.154;2022-12-16T01:00:24;29.67;;;9.80;;
70406;SDS011;57821;52.202;0.154;2022-12-16T01:02:51;24.33;;;10.65;;
70406;SDS011;57821;52.202;0.154;2022-12-16T01:05:20;24.02;;;11.80;;
70406;SDS011;57821;52.202;0.154;2022-12-16T01:07:47;21.45;;;10.20;;
70406;SDS011;57821;52.202;0.154;2022-12-16T01:10:14;27.73;;;10.35;;
70406;SDS011;57821;52.202;0.154;2022-12-16T01:12:40;19.52;;;9.82;;
70406;SDS011;57821;52.202;0.154;2022-12-16T01:15:07;20.58;;;9.77;;
70406;SDS011;57821;52.202;0.154;2022-12-16T01:17:34;22.65;;;9.70;;
70406;SDS011;57821;52.202;0.154;2022-12-16T01:20:01;22.55;;;9.85;;
70406;SDS011;57821;52.202;0.154;2022-12-16T01:22:28;28.38;;;12.25;;
70406;SDS011;57821;52.202;0.154;2022-12-16T01:24:59;22.17;;;11.20;;
70406;SDS011;57821;52.202;0.154;2022-12-16T01:27:26;23.45;;;11.98;;
70406;SDS011;57821;52.202;0.154;2022-12-16T01:29:53;23.23;;;11.48;;
70406;SDS011;57821;52.202;0.154;2022-12-16T01:32:20;23.42;;;11.27;;
70406;SDS011;57821;52.202;0.154;2022-12-16T01:34:48;25.00;;;10.98;;
70406;SDS011;57821;52.202;0.154;2022-12-16T01:37:21;28.75;;;11.70;;
70406;SDS011;57821;52.202;0.154;2022-12-16T01:39:48;24.20;;;11.55;;
70406;SDS011;57821;52.202;0.154;2022-12-16T01:42:17;28.60;;;12.43;;
70406;SDS011;57821;52.202;0.154;2022-12-16T01:44:46;30.33;;;11.73;;
70406;SDS011;57821;52.202;0.154;2022-12-16T01:47:14;26.85;;;12.20;;
70406;SDS011;57821;52.202;0.154;2022-12-16T01:49:48;25.48;;;12.43;;
70406;SDS011;57821;52.202;0.154;2022-12-16T01:52:24;29.90;;;12.50;;
70406;SDS011;57821;52.202;0.154;2022-12-16T01:55:02;26.45;;;12.23;;
70406;SDS011;57821;52.202;0.154;2022-12-16T01:57:55;29.80;;;12.45;;
70406;SDS011;57821;52.202;0.154;2022-12-16T02:00:26;25.80;;;11.60;;
70406;SDS011;57821;52.202;0.154;2022-12-16T02:02:53;29.67;;;11.90;;
70406;SDS011;57821;52.202;0.154;2022-12-16T02:05:21;33.67;;;12.98;;
70406;SDS011;57821;52.202;0.154;2022-12-16T02:07:59;29.25;;;12.32;;
70406;SDS011;57821;52.202;0.154;2022-12-16T02:10:34;30.65;;;12.68;;
70406;SDS011;57821;52.202;0.154;2022-12-16T02:16:43;29.38;;;12.48;;
70406;SDS011;57821;52.202;0.154;2022-12-16T02:25:08;29.48;;;12.20;;
70406;SDS011;57821;52.202;0.154;2022-12-16T02:31:05;33.80;;;13.30;;
70406;SDS011;57821;52.202;0.154;2022-12-16T02:33:45;28.83;;;12.30;;
70406;SDS011;57821;52.202;0.154;2022-12-16T02:36:41;24.13;;;9.90;;
70406;SDS011;57821;52.202;0.154;2022-12-16T02:39:16;41.67;;;14.55;;
70406;SDS011;57821;52.202;0.154;2022-12-16T02:41:53;41.15;;;14.50;;
70406;SDS011;57821;52.202;0.154;2022-12-16T02:44:52;35.17;;;13.07;;
70406;SDS011;57821;52.202;0.154;2022-12-16T02:47:45;28.27;;;12.73;;
70406;SDS011;57821;52.202;0.154;2022-12-16T02:50:29;30.67;;;12.23;;
70406;SDS011;57821;52.202;0.154;2022-12-16T02:53:00;30.33;;;13.23;;
70406;SDS011;57821;52.202;0.154;2022-12-16T03:04:50;29.88;;;13.30;;
70406;SDS011;57821;52.202;0.154;2022-12-16T03:07:21;32.58;;;13.38;;
70406;SDS011;57821;52.202;0.154;2022-12-16T03:09:51;29.60;;;12.88;;
70406;SDS011;57821;52.202;0.154;2022-12-16T03:12:20;41.67;;;14.05;;
70406;SDS011;57821;52.202;0.154;2022-12-16T03:14:48;32.85;;;14.70;;
70406;SDS011;57821;52.202;0.154;2022-12-16T03:17:18;36.33;;;14.73;;
70406;SDS011;57821;52.202;0.154;2022-12-16T03:20:06;32.78;;;13.95;;
70406;SDS011;57821;52.202;0.154;2022-12-16T03:22:37;37.03;;;15.27;;
70406;SDS011;57821;52.202;0.154;2022-12-16T03:25:09;34.38;;;14.75;;
70406;SDS011;57821;52.202;0.154;2022-12-16T03:27:56;40.55;;;15.00;;
70406;SDS011;57821;52.202;0.154;2022-12-16T03:30:31;38.55;;;14.75;;
70406;SDS011;57821;52.202;0.154;2022-12-16T03:33:07;33.88;;;14.27;;
70406;SDS011;57821;52.202;0.154;2022-12-16T03:35:44;38.38;;;15.63;;
70406;SDS011;57821;52.202;0.154;2022-12-16T03:38:29;44.72;;;15.93;;
70406;SDS011;57821;52.202;0.154;2022-12-16T03:40:58;40.17;;;15.93;;
70406;SDS011;57821;52.202;0.154;2022-12-16T03:43:26;38.10;;;14.82;;
70406;SDS011;57821;52.202;0.154;2022-12-16T03:45:54;33.97;;;15.50;;
70406;SDS011;57821;52.202;0.154;2022-12-16T03:48:27;44.88;;;15.50;;
70406;SDS011;57821;52.202;0.154;2022-12-16T03:50:53;40.15;;;15.73;;
70406;SDS011;57821;52.202;0.154;2022-12-16T03:53:37;40.88;;;14.35;;
70406;SDS011;57821;52.202;0.154;2022-12-16T03:56:03;47.70;;;15.07;;
70406;SDS011;57821;52.202;0.154;2022-12-16T03:58:30;42.00;;;16.38;;
70406;SDS011;57821;52.202;0.154;2022-12-16T04:00:56;44.25;;;15.90;;
70406;SDS011;57821;52.202;0.154;2022-12-16T04:03:23;34.03;;;14.02;;
70406;SDS011;57821;52.202;0.154;2022-12-16T04:05:49;36.25;;;13.85;;
70406;SDS011;57821;52.202;0.154;2022-12-16T04:08:16;31.58;;;14.15;;
70406;SDS011;57821;52.202;0.154;2022-12-16T04:10:42;31.40;;;14.13;;
70406;SDS011;57821;52.202;0.154;2022-12-16T04:13:09;32.15;;;14.20;;
70406;SDS011;57821;52.202;0.154;2022-12-16T04:15:36;33.20;;;14.10;;
70406;SDS011;57821;52.202;0.154;2022-12-16T04:18:03;32.10;;;12.93;;
70406;SDS011;57821;52.202;0.154;2022-12-16T04:20:31;34.38;;;13.90;;
70406;SDS011;57821;52.202;0.154;2022-12-16T04:23:01;42.50;;;15.43;;
70406;SDS011;57821;52.202;0.154;2022-12-16T04:25:33;45.08;;;16.50;;
70406;SDS011;57821;52.202;0.154;2022-12-16T04:28:18;42.35;;;15.52;;
70406;SDS011;57821;52.202;0.154;2022-12-16T04:30:45;42.92;;;15.45;;
70406;SDS011;57821;52.202;0.154;2022-12-16T04:33:12;43.15;;;17.48;;
70406;SDS011;57821;52.202;0.154;2022-12-16T04:35:40;40.22;;;17.35;;
70406;SDS011;57821;52.202;0.154;2022-12-16T04:38:06;47.92;;;17.10;;
70406;SDS011;57821;52.202;0.154;2022-12-16T04:40:33;55.45;;;16.88;;
70406;SDS011;57821;52.202;0.154;2022-12-16T04:43:00;38.55;;;15.60;;
70406;SDS011;57821;52.202;0.154;2022-12-16T04:45:44;38.60;;;15.82;;
70406;SDS011;57821;52.202;0.154;2022-12-16T04:48:11;36.10;;;15.52;;
70406;SDS011;57821;52.202;0.154;2022-12-16T04:50:38;37.83;;;14.38;;
70406;SDS011;57821;52.202;0.154;2022-12-16T04:53:04;44.22;;;15.85;;
70406;SDS011;57821;52.202;0.154;2022-12-16T04:55:31;48.97;;;17.75;;
70406;SDS011;57821;52.202;0.154;2022-12-16T04:57:58;51.78;;;17.50;;
70406;SDS011;57821;52.202;0.154;2022-12-16T05:00:43;44.47;;;17.10;;
70406;SDS011;57821;52.202;0.154;2022-12-16T05:03:11;62.30;;;17.55;;
70406;SDS011;57821;52.202;0.154;2022-12-16T05:05:37;45.95;;;17.75;;
70406;SDS011;57821;52.202;0.154;2022-12-16T05:08:04;45.83;;;17.70;;
70406;SDS011;57821;52.202;0.154;2022-12-16T05:10:30;48.50;;;18.13;;
70406;SDS011;57821;52.202;0.154;2022-12-16T05:12:57;42.22;;;17.33;;
70406;SDS011;57821;52.202;0.154;2022-12-16T05:15:23;44.25;;;16.20;;
70406;SDS011;57821;52.202;0.154;2022-12-16T05:17:49;39.40;;;16.23;;
70406;SDS011;57821;52.202;0.154;2022-12-16T05:20:16;37.28;;;16.35;;
70406;SDS011;57821;52.202;0.154;2022-12-16T05:22:42;48.03;;;17.20;;
70406;SDS011;57821;52.202;0.154;2022-12-16T05:25:09;42.80;;;16.73;;
70406;SDS011;57821;52.202;0.154;2022-12-16T05:27:35;36.75;;;14.77;;
70406;SDS011;57821;52.202;0.154;2022-12-16T05:30:03;34.53;;;14.57;;
70406;SDS011;57821;52.202;0.154;2022-12-16T05:32:29;35.72;;;15.65;;
70406;SDS011;57821;52.202;0.154;2022-12-16T05:35:08;34.83;;;13.93;;
70406;SDS011;57821;52.202;0.154;2022-12-16T05:37:35;33.47;;;14.27;;
70406;SDS011;57821;52.202;0.154;2022-12-16T05:40:01;37.22;;;15.00;;
70406;SDS011;57821;52.202;0.154;2022-12-16T05:42:28;38.20;;;14.73;;
70406;SDS011;57821;52.202;0.154;2022-12-16T05:44:54;40.42;;;14.18;;
70406;SDS011;57821;52.202;0.154;2022-12-16T05:47:21;32.80;;;13.98;;
70406;SDS011;57821;52.202;0.154;2022-12-16T05:49:47;35.17;;;14.35;;
70406;SDS011;57821;52.202;0.154;2022-12-16T05:52:13;28.05;;;13.68;;
70406;SDS011;57821;52.202;0.154;2022-12-16T05:54:40;29.10;;;12.73;;
70406;SDS011;57821;52.202;0.154;2022-12-16T05:57:06;33.35;;;12.75;;
70406;SDS011;57821;52.202;0.154;2022-12-16T05:59:33;29.88;;;13.25;;
70406;SDS011;57821;52.202;0.154;2022-12-16T06:01:59;31.10;;;14.57;;
70406;SDS011;57821;52.202;0.154;2022-12-16T06:04:26;35.15;;;13.80;;
70406;SDS011;57821;52.202;0.154;2022-12-16T06:06:53;35.22;;;14.70;;
70406;SDS011;57821;52.202;0.154;2022-12-16T06:09:20;26.77;;;13.18;;
70406;SDS011;57821;52.202;0.154;2022-12-16T06:11:46;28.80;;;13.52;;
70406;SDS011;57821;52.202;0.154;2022-12-16T06:14:13;36.47;;;14.60;;
70406;SDS011;57821;52.202;0.154;2022-12-16T06:16:39;29.35;;;13.50;;
70406;SDS011;57821;52.202;0.154;2022-12-16T06:19:06;30.15;;;13.52;;
70406;SDS011;57821;52.202;0.154;2022-12-16T06:21:32;31.08;;;13.25;;
70406;SDS011;57821;52.202;0.154;2022-12-16T06:23:59;29.10;;;13.32;;
70406;SDS011;57821;52.202;0.154;2022-12-16T06:26:25;35.92;;;14.02;;
70406;SDS011;57821;52.202;0.154;2022-12-16T06:28:52;35.35;;;13.60;;
70406;SDS011;57821;52.202;0.154;2022-12-16T06:31:18;31.00;;;13.68;;
70406;SDS011;57821;52.202;0.154;2022-12-16T06:33:45;30.38;;;13.20;;
70406;SDS011;57821;52.202;0.154;2022-12-16T06:36:17;31.30;;;13.80;;
70406;SDS011;57821;52.202;0.154;2022-12-16T06:38:43;31.75;;;13.98;;
70406;SDS011;57821;52.202;0.154;2022-12-16T06:41:10;34.38;;;14.02;;
70406;SDS011;57821;52.202;0.154;2022-12-16T06:43:36;33.85;;;13.95;;
70406;SDS011;57821;52.202;0.154;2022-12-16T06:46:02;35.10;;;14.77;;
70406;SDS011;57821;52.202;0.154;2022-12-16T06:48:29;32.92;;;14.43;;
70406;SDS011;57821;52.202;0.154;2022-12-16T06:50:56;32.53;;;14.30;;
70406;SDS011;57821;52.202;0.154;2022-12-16T06:53:22;31.42;;;13.60;;
70406;SDS011;57821;52.202;0.154;2022-12-16T06:55:49;33.50;;;14.50;;
70406;SDS011;57821;52.202;0.154;2022-12-16T06:58:15;30.50;;;13.93;;
70406;SDS011;57821;52.202;0.154;2022-12-16T07:00:41;29.60;;;13.32;;
70406;SDS011;57821;52.202;0.154;2022-12-16T07:03:08;30.98;;;14.18;;
70406;SDS011;57821;52.202;0.154;2022-12-16T07:05:34;31.30;;;14.02;;
70406;SDS011;57821;52.202;0.154;2022-12-16T07:08:01;28.55;;;13.65;;
70406;SDS011;57821;52.202;0.154;2022-12-16T07:10:27;36.90;;;14.32;;
70406;SDS011;57821;52.202;0.154;2022-12-16T07:12:58;31.95;;;13.50;;
70406;SDS011;57821;52.202;0.154;2022-12-16T07:15:25;31.08;;;14.30;;
70406;SDS011;57821;52.202;0.154;2022-12-16T07:17:51;34.10;;;14.07;;
70406;SDS011;57821;52.202;0.154;2022-12-16T07:20:18;32.78;;;15.27;;
70406;SDS011;57821;52.202;0.154;2022-12-16T07:22:44;31.00;;;14.40;;
70406;SDS011;57821;52.202;0.154;2022-12-16T07:25:11;34.13;;;15.63;;
70406;SDS011;57821;52.202;0.154;2022-12-16T07:27:37;38.70;;;15.30;;
70406;SDS011;57821;52.202;0.154;2022-12-16T07:30:04;34.95;;;15.02;;
70406;SDS011;57821;52.202;0.154;2022-12-16T07:32:30;35.33;;;15.45;;
70406;SDS011;57821;52.202;0.154;2022-12-16T07:34:57;40.03;;;15.13;;
70406;SDS011;57821;52.202;0.154;2022-12-16T07:37:23;34.33;;;14.82;;
70406;SDS011;57821;52.202;0.154;2022-12-16T07:39:50;33.92;;;15.07;;
70406;SDS011;57821;52.202;0.154;2022-12-16T07:42:21;35.63;;;16.63;;
70406;SDS011;57821;52.202;0.154;2022-12-16T07:44:49;36.17;;;15.93;;
70406;SDS011;57821;52.202;0.154;2022-12-16T07:47:15;35.85;;;16.85;;
70406;SDS011;57821;52.202;0.154;2022-12-16T07:49:41;38.35;;;17.30;;
70406;SDS011;57821;52.202;0.154;2022-12-16T07:52:08;40.97;;;17.45;;
70406;SDS011;57821;52.202;0.154;2022-12-16T07:54:35;39.85;;;15.52;;
70406;SDS011;57821;52.202;0.154;2022-12-16T07:57:01;38.17;;;16.35;;
70406;SDS011;57821;52.202;0.154;2022-12-16T07:59:28;36.90;;;17.05;;
70406;SDS011;57821;52.202;0.154;2022-12-16T08:01:54;40.80;;;16.85;;
70406;SDS011;57821;52.202;0.154;2022-12-16T08:04:21;34.75;;;16.30;;
70406;SDS011;57821;52.202;0.154;2022-12-16T08:06:48;34.10;;;15.55;;
70406;SDS011;57821;52.202;0.154;2022-12-16T08:09:15;30.25;;;14.55;;
70406;SDS011;57821;52.202;0.154;2022-12-16T08:11:41;34.58;;;14.73;;
70406;SDS011;57821;52.202;0.154;2022-12-16T08:14:07;39.53;;;16.52;;
70406;SDS011;57821;52.202;0.154;2022-12-16T08:16:34;31.00;;;15.02;;
70406;SDS011;57821;52.202;0.154;2022-12-16T08:19:00;41.22;;;15.82;;
70406;SDS011;57821;52.202;0.154;2022-12-16T08:21:35;34.47;;;14.70;;
70406;SDS011;57821;52.202;0.154;2022-12-16T08:24:02;32.05;;;14.73;;
70406;SDS011;57821;52.202;0.154;2022-12-16T08:26:28;32.80;;;15.23;;
70406;SDS011;57821;52.202;0.154;2022-12-16T08:28:55;35.15;;;15.43;;
70406;SDS011;57821;52.202;0.154;2022-12-16T08:31:39;36.85;;;15.82;;
70406;SDS011;57821;52.202;0.154;2022-12-16T08:34:05;35.60;;;15.90;;
70406;SDS011;57821;52.202;0.154;2022-12-16T08:36:33;40.13;;;18.38;;
70406;SDS011;57821;52.202;0.154;2022-12-16T08:38:59;43.03;;;16.00;;
70406;SDS011;57821;52.202;0.154;2022-12-16T08:41:26;40.08;;;17.73;;
70406;SDS011;57821;52.202;0.154;2022-12-16T08:43:52;43.38;;;18.80;;
70406;SDS011;57821;52.202;0.154;2022-12-16T08:46:20;33.13;;;16.38;;
70406;SDS011;57821;52.202;0.154;2022-12-16T08:48:46;35.75;;;17.27;;
70406;SDS011;57821;52.202;0.154;2022-12-16T08:51:13;39.80;;;17.38;;
70406;SDS011;57821;52.202;0.154;2022-12-16T08:53:39;39.75;;;17.05;;
70406;SDS011;57821;52.202;0.154;2022-12-16T08:56:06;34.95;;;16.65;;
70406;SDS011;57821;52.202;0.154;2022-12-16T08:58:32;42.83;;;16.58;;
70406;SDS011;57821;52.202;0.154;2022-12-16T09:00:59;37.20;;;17.00;;
70406;SDS011;57821;52.202;0.154;2022-12-16T09:03:32;39.33;;;17.25;;
70406;SDS011;57821;52.202;0.154;2022-12-16T09:05:59;37.65;;;18.25;;
70406;SDS011;57821;52.202;0.154;2022-12-16T09:08:26;35.75;;;17.20;;
70406;SDS011;57821;52.202;0.154;2022-12-16T09:10:53;36.05;;;16.73;;
70406;SDS011;57821;52.202;0.154;2022-12-16T09:13:20;38.67;;;16.55;;
70406;SDS011;57821;52.202;0.154;2022-12-16T09:15:46;43.13;;;18.52;;
70406;SDS011;57821;52.202;0.154;2022-12-16T09:18:13;37.17;;;18.27;;
70406;SDS011;57821;52.202;0.154;2022-12-16T09:20:40;40.65;;;19.02;;
70406;SDS011;57821;52.202;0.154;2022-12-16T09:23:06;47.72;;;21.17;;
70406;SDS011;57821;52.202;0.154;2022-12-16T09:25:34;44.88;;;19.10;;
70406;SDS011;57821;52.202;0.154;2022-12-16T09:28:00;34.28;;;18.10;;
70406;SDS011;57821;52.202;0.154;2022-12-16T09:30:26;37.08;;;18.20;;
70406;SDS011;57821;52.202;0.154;2022-12-16T09:32:53;36.80;;;17.80;;
70406;SDS011;57821;52.202;0.154;2022-12-16T09:35:19;31.73;;;16.67;;
70406;SDS011;57821;52.202;0.154;2022-12-16T09:37:46;35.75;;;17.80;;
70406;SDS011;57821;52.202;0.154;2022-12-16T09:40:14;33.13;;;16.45;;
70406;SDS011;57821;52.202;0.154;2022-12-16T09:45:32;32.70;;;15.68;;
70406;SDS011;57821;52.202;0.154;2022-12-16T09:48:03;27.48;;;16.05;;
70406;SDS011;57821;52.202;0.154;2022-12-16T09:50:46;25.55;;;13.82;;
70406;SDS011;57821;52.202;0.154;2022-12-16T09:53:15;28.63;;;16.52;;
70406;SDS011;57821;52.202;0.154;2022-12-16T09:55:44;28.08;;;14.73;;
70406;SDS011;57821;52.202;0.154;2022-12-16T09:58:12;28.40;;;15.85;;
70406;SDS011;57821;52.202;0.154;2022-12-16T10:00:40;23.33;;;13.77;;
70406;SDS011;57821;52.202;0.154;2022-12-16T10:08:42;23.60;;;14.77;;
70406;SDS011;57821;52.202;0.154;2022-12-16T10:11:17;25.15;;;14.88;;
70406;SDS011;57821;52.202;0.154;2022-12-16T10:13:53;23.70;;;13.93;;
70406;SDS011;57821;52.202;0.154;2022-12-16T10:27:12;25.42;;;14.18;;
70406;SDS011;57821;52.202;0.154;2022-12-16T10:29:41;21.73;;;13.95;;
70406;SDS011;57821;52.202;0.154;2022-12-16T10:34:58;25.42;;;14.35;;
70406;SDS011;57821;52.202;0.154;2022-12-16T10:37:59;27.10;;;14.88;;
70406;SDS011;57821;52.202;0.154;2022-12-16T10:40:19;22.98;;;13.93;;
70406;SDS011;57821;52.202;0.154;2022-12-16T10:42:59;27.50;;;15.05;;
70406;SDS011;57821;52.202;0.154;2022-12-16T10:45:43;28.08;;;15.18;;
70406;SDS011;57821;52.202;0.154;2022-12-16T10:48:12;25.42;;;14.80;;
70406;SDS011;57821;52.202;0.154;2022-12-16T10:50:41;24.13;;;14.50;;
70406;SDS011;57821;52.202;0.154;2022-12-16T10:53:12;27.65;;;15.13;;
70406;SDS011;57821;52.202;0.154;2022-12-16T11:01:01;26.15;;;13.88;;
70406;SDS011;57821;52.202;0.154;2022-12-16T11:03:47;24.70;;;14.00;;
70406;SDS011;57821;52.202;0.154;2022-12-16T11:06:21;26.40;;;14.60;;
70406;SDS011;57821;52.202;0.154;2022-12-16T11:08:51;23.70;;;14.38;;
70406;SDS011;57821;52.202;0.154;2022-12-16T11:13:56;27.98;;;14.73;;
70406;SDS011;57821;52.202;0.154;2022-12-16T11:16:48;30.58;;;14.63;;
70406;SDS011;57821;52.202;0.154;2022-12-16T11:20:02;25.67;;;14.23;;
70406;SDS011;57821;52.202;0.154;2022-12-16T11:22:32;23.58;;;14.88;;
70406;SDS011;57821;52.202;0.154;2022-12-16T11:27:37;26.98;;;14.88;;
70406;SDS011;57821;52.202;0.154;2022-12-16T11:30:17;31.92;;;16.15;;
70406;SDS011;57821;52.202;0.154;2022-12-16T11:32:55;28.00;;;15.30;;
70406;SDS011;57821;52.202;0.154;2022-12-16T11:35:25;26.85;;;15.10;;
70406;SDS011;57821;52.202;0.154;2022-12-16T11:37:54;27.35;;;15.35;;
70406;SDS011;57821;52.202;0.154;2022-12-16T11:40:23;26.65;;;14.55;;
70406;SDS011;57821;52.202;0.154;2022-12-16T11:42:50;26.08;;;14.55;;
70406;SDS011;57821;52.202;0.154;2022-12-16T11:45:18;25.58;;;14.88;;
70406;SDS011;57821;52.202;0.154;2022-12-16T11:50:26;29.63;;;14.80;;
70406;SDS011;57821;52.202;0.154;2022-12-16T11:52:55;24.90;;;14.70;;
70406;SDS011;57821;52.202;0.154;2022-12-16T11:55:23;27.33;;;15.15;;
70406;SDS011;57821;52.202;0.154;2022-12-16T11:58:17;27.38;;;16.27;;
70406;SDS011;57821;52.202;0.154;2022-12-16T12:00:56;26.10;;;14.20;;
70406;SDS011;57821;52.202;0.154;2022-12-16T12:03:27;26.30;;;15.18;;
70406;SDS011;57821;52.202;0.154;2022-12-16T12:06:04;26.92;;;14.65;;
70406;SDS011;57821;52.202;0.154;2022-12-16T12:08:59;23.40;;;13.75;;
70406;SDS011;57821;52.202;0.154;2022-12-16T12:11:34;27.17;;;15.02;;
70406;SDS011;57821;52.202;0.154;2022-12-16T12:20:03;24.90;;;15.00;;
70406;SDS011;57821;52.202;0.154;2022-12-16T12:22:54;25.00;;;14.63;;
70406;SDS011;57821;52.202;0.154;2022-12-16T12:28:50;29.02;;;14.07;;
70406;SDS011;57821;52.202;0.154;2022-12-16T12:31:57;27.27;;;14.13;;
70406;SDS011;57821;52.202;0.154;2022-12-16T12:37:33;29.35;;;15.05;;
70406;SDS011;57821;52.202;0.154;2022-12-16T12:40:14;25.80;;;15.82;;
70406;SDS011;57821;52.202;0.154;2022-12-16T12:42:53;30.35;;;14.88;;
70406;SDS011;57821;52.202;0.154;2022-12-16T12:48:50;33.05;;;16.02;;
70406;SDS011;57821;52.202;0.154;2022-12-16T12:53:55;27.70;;;15.70;;
70406;SDS011;57821;52.202;0.154;2022-12-16T12:59:15;29.23;;;16.67;;
70406;SDS011;57821;52.202;0.154;2022-12-16T13:01:48;27.23;;;15.55;;
70406;SDS011;57821;52.202;0.154;2022-12-16T13:04:19;26.73;;;14.90;;
70406;SDS011;57821;52.202;0.154;2022-12-16T13:06:48;26.40;;;15.90;;
70406;SDS011;57821;52.202;0.154;2022-12-16T13:16:58;27.48;;;15.65;;
70406;SDS011;57821;52.202;0.154;2022-12-16T13:21:54;25.38;;;16.38;;
70406;SDS011;57821;52.202;0.154;2022-12-16T13:26:59;28.13;;;15.77;;
70406;SDS011;57821;52.202;0.154;2022-12-16T13:29:27;33.22;;;17.67;;
70406;SDS011;57821;52.202;0.154;2022-12-16T13:32:10;26.88;;;17.40;;
70406;SDS011;57821;52.202;0.154;2022-12-16T13:34:42;33.63;;;17.00;;
70406;SDS011;57821;52.202;0.154;2022-12-16T13:37:17;25.25;;;16.52;;
70406;SDS011;57821;52.202;0.154;2022-12-16T13:40:03;24.77;;;14.48;;
70406;SDS011;57821;52.202;0.154;2022-12-16T13:48:32;28.40;;;15.55;;
70406;SDS011;57821;52.202;0.154;2022-12-16T13:51:04;25.92;;;15.40;;
70406;SDS011;57821;52.202;0.154;2022-12-16T13:53:31;29.63;;;15.80;;
70406;SDS011;57821;52.202;0.154;2022-12-16T14:01:20;25.77;;;15.48;;
70406;SDS011;57821;52.202;0.154;2022-12-16T14:03:53;30.42;;;17.17;;
70406;SDS011;57821;52.202;0.154;2022-12-16T14:06:21;30.77;;;17.30;;
70406;SDS011;57821;52.202;0.154;2022-12-16T14:08:51;33.97;;;19.55;;
70406;SDS011;57821;52.202;0.154;2022-12-16T14:11:18;26.73;;;16.83;;
70406;SDS011;57821;52.202;0.154;2022-12-16T14:16:33;28.85;;;16.90;;
70406;SDS011;57821;52.202;0.154;2022-12-16T14:21:51;30.75;;;17.67;;
70406;SDS011;57821;52.202;0.154;2022-12-16T14:24:25;33.63;;;18.33;;
70406;SDS011;57821;52.202;0.154;2022-12-16T14:26:52;32.38;;;17.05;;
70406;SDS011;57821;52.202;0.154;2022-12-16T14:29:26;28.63;;;16.88;;
70406;SDS011;57821;52.202;0.154;2022-12-16T14:31:54;27.30;;;17.00;;
70406;SDS011;57821;52.202;0.154;2022-12-16T14:34:22;32.38;;;17.67;;
70406;SDS011;57821;52.202;0.154;2022-12-16T14:36:50;34.17;;;18.50;;
70406;SDS011;57821;52.202;0.154;2022-12-16T14:39:21;32.42;;;19.00;;
70406;SDS011;57821;52.202;0.154;2022-12-16T14:41:50;36.03;;;19.63;;
70406;SDS011;57821;52.202;0.154;2022-12-16T14:44:17;30.50;;;18.00;;
70406;SDS011;57821;52.202;0.154;2022-12-16T14:46:48;33.47;;;17.80;;
70406;SDS011;57821;52.202;0.154;2022-12-16T14:49:27;33.15;;;18.65;;
70406;SDS011;57821;52.202;0.154;2022-12-16T14:51:55;31.00;;;19.35;;
70406;SDS011;57821;52.202;0.154;2022-12-16T14:57:00;35.08;;;18.13;;
70406;SDS011;57821;52.202;0.154;2022-12-16T14:59:26;32.75;;;17.75;;
70406;SDS011;57821;52.202;0.154;2022-12-16T15:01:53;36.63;;;18.60;;
70406;SDS011;57821;52.202;0.154;2022-12-16T15:04:23;34.85;;;18.17;;
70406;SDS011;57821;52.202;0.154;2022-12-16T15:06:51;27.42;;;16.92;;
70406;SDS011;57821;52.202;0.154;2022-12-16T15:09:28;31.40;;;18.50;;
70406;SDS011;57821;52.202;0.154;2022-12-16T15:11:55;35.17;;;19.58;;
70406;SDS011;57821;52.202;0.154;2022-12-16T15:14:23;38.05;;;20.95;;
70406;SDS011;57821;52.202;0.154;2022-12-16T15:16:55;35.97;;;18.95;;
70406;SDS011;57821;52.202;0.154;2022-12-16T15:19:22;37.30;;;20.88;;
70406;SDS011;57821;52.202;0.154;2022-12-16T15:21:50;36.45;;;19.65;;
70406;SDS011;57821;52.202;0.154;2022-12-16T15:24:17;37.85;;;21.08;;
70406;SDS011;57821;52.202;0.154;2022-12-16T15:26:46;39.72;;;20.70;;
70406;SDS011;57821;52.202;0.154;2022-12-16T15:31:51;37.90;;;20.05;;
70406;SDS011;57821;52.202;0.154;2022-12-16T15:36:52;38.20;;;20.95;;
70406;SDS011;57821;52.202;0.154;2022-12-16T15:42:01;38.92;;;21.10;;
70406;SDS011;57821;52.202;0.154;2022-12-16T15:44:28;42.97;;;20.92;;
70406;SDS011;57821;52.202;0.154;2022-12-16T15:46:55;38.33;;;20.60;;
70406;SDS011;57821;52.202;0.154;2022-12-16T15:49:31;38.03;;;20.45;;
70406;SDS011;57821;52.202;0.154;2022-12-16T15:52:01;36.38;;;20.98;;
70406;SDS011;57821;52.202;0.154;2022-12-16T15:54:27;35.70;;;19.88;;
70406;SDS011;57821;52.202;0.154;2022-12-16T15:56:54;39.83;;;21.63;;
70406;SDS011;57821;52.202;0.154;2022-12-16T16:01:51;47.38;;;25.33;;
70406;SDS011;57821;52.202;0.154;2022-12-16T16:04:25;53.63;;;28.70;;
70406;SDS011;57821;52.202;0.154;2022-12-16T16:06:53;50.47;;;26.35;;
70406;SDS011;57821;52.202;0.154;2022-12-16T16:09:27;47.00;;;26.27;;
70406;SDS011;57821;52.202;0.154;2022-12-16T16:11:55;50.22;;;26.67;;
70406;SDS011;57821;52.202;0.154;2022-12-16T16:14:21;49.55;;;26.73;;
70406;SDS011;57821;52.202;0.154;2022-12-16T16:16:47;53.13;;;25.55;;
70406;SDS011;57821;52.202;0.154;2022-12-16T16:19:23;47.35;;;25.65;;
70406;SDS011;57821;52.202;0.154;2022-12-16T16:21:51;64.43;;;26.30;;
70406;SDS011;57821;52.202;0.154;2022-12-16T16:24:18;47.28;;;25.10;;
70406;SDS011;57821;52.202;0.154;2022-12-16T16:26:44;50.40;;;25.55;;
70406;SDS011;57821;52.202;0.154;2022-12-16T16:29:11;45.85;;;24.60;;
70406;SDS011;57821;52.202;0.154;2022-12-16T16:31:38;50.67;;;25.08;;
70406;SDS011;57821;52.202;0.154;2022-12-16T16:34:04;44.97;;;23.55;;
70406;SDS011;57821;52.202;0.154;2022-12-16T16:36:31;46.53;;;24.23;;
70406;SDS011;57821;52.202;0.154;2022-12-16T16:38:57;49.70;;;26.60;;